Harrisonburg, Virginia
Current Conditions -  °F | °C
As of 2:55 AM on Sunday 26 Oct 2014 (Local Time) from KVBW Reporting Station
Clear Clear  
Wind Chill: 63°   Ceiling: Unl
Heat Index: 63°   Visibility: 10mi
Dew Point: 38°   Wind: 7mph
Humidity: 41%   Direction: 310°NW
Pressure: 29.76"   Gusts: 16mph
Location:  38.45°N, 78.87°W
Report Text: KVBW 260655Z AUTO 31006G14KT 10SM CLR 17/04 A2976 RMK AO2 T01700036
Loading
Personal Weather Stations






























Interactive Weather Map
Tropical Storm Tracking
New forecast layout! Learn more

10-Day Weather Forecast

Advertisements
Track Severe Weather on mobile